createdAt,value
2022-08-26T00:01:38.671Z,23.75
2022-08-26T00:04:06.163Z,20.00
2022-08-26T00:06:33.760Z,20.75
2022-08-26T00:09:03.690Z,22.50
2022-08-26T00:11:35.460Z,23.75
2022-08-26T00:14:02.903Z,20.50
2022-08-26T00:16:31.233Z,23.00
2022-08-26T00:18:58.827Z,21.75
2022-08-26T00:21:26.504Z,24.00
2022-08-26T00:23:54.756Z,23.00
2022-08-26T00:26:23.660Z,25.25
2022-08-26T00:28:56.458Z,20.00
2022-08-26T00:31:23.963Z,23.00
2022-08-26T00:33:51.437Z,21.75
2022-08-26T00:36:20.313Z,23.75
2022-08-26T00:38:48.030Z,22.00
2022-08-26T00:41:17.021Z,24.00
2022-08-26T00:43:47.687Z,22.50
2022-08-26T00:46:16.992Z,23.50
2022-08-26T00:48:45.034Z,24.00
2022-08-26T00:51:15.689Z,21.50
2022-08-26T00:53:45.396Z,21.75
2022-08-26T00:56:15.969Z,21.50
2022-08-26T00:58:45.309Z,23.25
2022-08-26T01:01:14.242Z,22.75
2022-08-26T01:03:41.823Z,25.25
2022-08-26T01:06:12.503Z,23.00
2022-08-26T01:08:40.518Z,21.75
2022-08-26T01:11:08.012Z,22.50
2022-08-26T01:13:35.666Z,23.75
2022-08-26T01:16:04.205Z,21.25
2022-08-26T01:18:33.078Z,23.75
2022-08-26T01:21:02.863Z,22.50
2022-08-26T01:23:34.336Z,21.25
2022-08-26T01:26:03.843Z,23.75
2022-08-26T01:28:32.728Z,21.75
2022-08-26T01:31:02.432Z,23.50
2022-08-26T01:33:30.979Z,27.00
2022-08-26T01:36:09.801Z,23.00
2022-08-26T01:38:38.500Z,26.75
2022-08-26T01:41:16.378Z,21.75
2022-08-26T01:43:47.902Z,23.00
2022-08-26T01:46:15.977Z,22.00
2022-08-26T01:48:43.700Z,20.00
2022-08-26T01:51:11.516Z,21.25
2022-08-26T01:53:41.782Z,24.50
2022-08-26T01:56:13.585Z,22.00
2022-08-26T01:58:43.293Z,21.50
2022-08-26T02:01:10.812Z,22.25
2022-08-26T02:03:43.072Z,22.75
2022-08-26T02:06:10.565Z,22.75
2022-08-26T02:08:40.592Z,24.00
2022-08-26T02:11:08.055Z,20.50
2022-08-26T02:13:37.824Z,21.00
2022-08-26T02:16:05.346Z,22.00
2022-08-26T02:18:36.737Z,22.50
2022-08-26T02:21:06.613Z,20.50
2022-08-26T02:23:34.326Z,22.00
2022-08-26T02:26:04.593Z,23.25
2022-08-26T02:28:34.057Z,21.00
2022-08-26T02:31:02.701Z,22.25
2022-08-26T02:33:30.269Z,21.25
2022-08-26T02:35:57.954Z,21.75
2022-08-26T02:38:26.027Z,22.25
2022-08-26T02:40:53.473Z,24.50
2022-08-26T02:43:23.831Z,24.25
2022-08-26T02:46:00.802Z,19.25
2022-08-26T02:48:29.316Z,21.25
2022-08-26T02:50:56.753Z,21.50
2022-08-26T02:53:25.473Z,22.50
2022-08-26T02:55:53.134Z,20.00
2022-08-26T02:58:22.152Z,20.50
2022-08-26T03:00:53.409Z,22.00
2022-08-26T03:03:22.515Z,19.00
2022-08-26T03:05:51.217Z,20.75
2022-08-26T03:08:18.669Z,22.75
2022-08-26T03:10:46.435Z,20.50
2022-08-26T03:13:15.544Z,21.00
2022-08-26T03:15:44.338Z,24.00
2022-08-26T03:18:13.624Z,21.50
2022-08-26T03:20:41.072Z,24.50
2022-08-26T03:23:09.086Z,22.50
2022-08-26T03:25:36.642Z,20.75
2022-08-26T03:28:04.245Z,23.50
2022-08-26T03:30:45.377Z,24.25
2022-08-26T03:33:14.898Z,24.00
2022-08-26T03:35:43.399Z,22.25
2022-08-26T03:38:10.877Z,23.00
2022-08-26T03:40:38.668Z,22.75
2022-08-26T03:43:06.660Z,21.75
2022-08-26T03:45:37.820Z,25.50
2022-08-26T03:48:05.277Z,25.00
2022-08-26T03:50:35.630Z,21.75
2022-08-26T03:53:03.437Z,24.50
2022-08-26T03:55:32.394Z,21.50
2022-08-26T03:58:00.673Z,19.25
2022-08-26T04:00:28.120Z,23.00
2022-08-26T04:02:56.085Z,21.25
2022-08-26T04:05:23.886Z,22.00
2022-08-26T04:07:53.002Z,24.50
2022-08-26T04:10:22.478Z,22.75
2022-08-26T04:13:06.340Z,23.25
2022-08-26T04:15:34.272Z,22.25
2022-08-26T04:18:01.773Z,25.00
2022-08-26T04:20:29.228Z,23.25
2022-08-26T04:22:57.942Z,21.00
2022-08-26T04:25:25.408Z,21.50
2022-08-26T04:27:53.034Z,22.00
2022-08-26T04:30:21.126Z,19.50
2022-08-26T04:32:48.747Z,22.75
2022-08-26T04:35:16.204Z,22.00
2022-08-26T04:37:44.823Z,21.50
2022-08-26T04:40:13.774Z,21.75
2022-08-26T04:42:41.273Z,20.75
2022-08-26T04:45:10.036Z,24.25
2022-08-26T04:47:38.059Z,25.75
2022-08-26T04:50:06.897Z,22.50
2022-08-26T04:52:35.531Z,23.25
2022-08-26T04:55:03.043Z,23.00
2022-08-26T04:57:34.675Z,20.75
2022-08-26T05:00:02.127Z,24.25
2022-08-26T05:02:31.467Z,24.50
2022-08-26T05:04:58.911Z,22.25
2022-08-26T05:07:26.775Z,23.00
2022-08-26T05:09:54.321Z,22.00
2022-08-26T05:12:21.967Z,26.00
2022-08-26T05:14:50.686Z,22.00
2022-08-26T05:17:19.362Z,21.75
2022-08-26T05:19:47.101Z,22.50
2022-08-26T05:22:14.886Z,23.00
2022-08-26T05:24:43.175Z,22.75
2022-08-26T05:27:11.787Z,22.25
2022-08-26T05:29:40.070Z,25.50
2022-08-26T05:32:08.856Z,21.75
2022-08-26T05:34:38.741Z,23.25
2022-08-26T05:37:06.530Z,20.50
2022-08-26T05:39:34.113Z,22.75
2022-08-26T05:42:02.210Z,22.75
2022-08-26T05:44:29.925Z,21.00
2022-08-26T05:47:18.645Z,21.25
2022-08-26T05:49:49.454Z,25.00
2022-08-26T05:52:19.140Z,19.75
2022-08-26T05:54:46.596Z,24.50
2022-08-26T05:57:15.264Z,26.50
2022-08-26T05:59:42.715Z,20.50
2022-08-26T06:02:10.461Z,24.25
2022-08-26T06:04:39.324Z,24.00
2022-08-26T06:07:07.419Z,22.25
2022-08-26T06:09:39.617Z,24.75
2022-08-26T06:12:07.241Z,21.75
2022-08-26T06:14:36.047Z,22.75
2022-08-26T06:17:03.534Z,25.00
2022-08-26T06:19:32.950Z,24.50
2022-08-26T06:22:23.791Z,21.00
2022-08-26T06:25:08.991Z,22.75
2022-08-26T06:27:37.449Z,26.00
2022-08-26T06:30:05.535Z,25.00
2022-08-26T06:32:33.798Z,21.00
2022-08-26T06:35:01.607Z,18.25
2022-08-26T06:37:30.348Z,24.00
2022-08-26T06:39:57.845Z,23.00
2022-08-26T06:42:25.308Z,22.00
2022-08-26T06:44:52.767Z,22.25
2022-08-26T06:47:20.468Z,21.50
2022-08-26T06:49:48.199Z,22.00
2022-08-26T06:52:22.534Z,22.25
2022-08-26T06:54:53.261Z,22.25
2022-08-26T06:57:20.694Z,20.00
2022-08-26T06:59:51.203Z,23.00
2022-08-26T07:02:19.469Z,24.00
2022-08-26T07:04:48.355Z,22.50
2022-08-26T07:07:18.742Z,23.50
2022-08-26T07:09:49.517Z,20.25
2022-08-26T07:12:21.559Z,21.75
2022-08-26T07:14:49.507Z,22.00
2022-08-26T07:17:16.995Z,24.00
2022-08-26T07:19:45.895Z,22.25
2022-08-26T07:22:13.404Z,21.75
2022-08-26T07:24:42.501Z,23.50
2022-08-26T07:27:10.890Z,19.25
2022-08-26T07:29:40.074Z,22.50
2022-08-26T07:32:07.783Z,20.00
2022-08-26T07:34:35.267Z,22.25
2022-08-26T07:37:03.671Z,20.50
2022-08-26T07:39:31.337Z,24.00
2022-08-26T07:41:59.424Z,23.75
2022-08-26T07:44:27.748Z,21.50
2022-08-26T07:46:56.455Z,23.50
2022-08-26T07:49:25.038Z,22.75
2022-08-26T07:51:52.881Z,22.50
2022-08-26T07:54:20.314Z,22.50
2022-08-26T07:56:54.048Z,23.00
2022-08-26T07:59:23.412Z,24.25
2022-08-26T08:01:50.947Z,26.50
2022-08-26T08:04:25.530Z,21.75
2022-08-26T08:06:53.896Z,25.75
2022-08-26T08:09:22.415Z,22.75
2022-08-26T08:11:51.281Z,21.00
2022-08-26T08:14:22.020Z,20.50
2022-08-26T08:16:51.266Z,22.75
2022-08-26T08:19:24.331Z,23.25
2022-08-26T08:22:05.134Z,20.00
2022-08-26T08:24:44.603Z,23.00
2022-08-26T08:27:12.085Z,21.75
2022-08-26T08:29:41.140Z,19.25
2022-08-26T08:32:11.577Z,20.25
2022-08-26T08:37:16.728Z,22.75
2022-08-26T08:39:44.165Z,22.50
2022-08-26T08:42:28.047Z,23.50
2022-08-26T08:44:57.035Z,22.75
2022-08-26T08:47:28.980Z,24.75
2022-08-26T08:49:58.256Z,22.00
2022-08-26T08:52:28.903Z,21.75
2022-08-26T08:54:56.893Z,18.75
2022-08-26T08:57:28.160Z,21.50
2022-08-26T08:59:58.217Z,18.00
2022-08-26T09:02:28.053Z,20.75
2022-08-26T09:05:02.184Z,22.00
2022-08-26T09:07:35.895Z,19.00
2022-08-26T09:10:06.944Z,20.50
2022-08-26T09:12:34.674Z,12.75
2022-08-26T09:15:03.458Z,23.00
2022-08-26T09:17:37.553Z,20.25
2022-08-26T09:20:11.698Z,18.50
2022-08-26T09:22:40.405Z,19.75
2022-08-26T09:25:13.040Z,20.25
2022-08-26T09:27:43.129Z,17.75
2022-08-26T09:30:12.224Z,20.50
2022-08-26T09:32:40.383Z,20.25
2022-08-26T09:35:10.923Z,19.50
2022-08-26T09:37:41.318Z,21.25
2022-08-26T09:40:20.575Z,17.75
2022-08-26T09:42:48.820Z,23.75
2022-08-26T09:45:17.025Z,20.00
2022-08-26T09:47:53.597Z,20.75
2022-08-26T09:50:29.874Z,18.50
2022-08-26T09:53:15.848Z,22.25
2022-08-26T09:55:43.905Z,23.00
2022-08-26T09:58:13.716Z,18.50
2022-08-26T10:00:55.349Z,17.50
2022-08-26T10:03:25.684Z,19.25
2022-08-26T10:05:58.524Z,19.50
2022-08-26T10:08:28.416Z,18.25
2022-08-26T10:10:57.481Z,18.50
2022-08-26T10:13:28.102Z,18.50
2022-08-26T10:16:01.009Z,19.00
2022-08-26T10:18:34.142Z,19.25
2022-08-26T10:21:06.286Z,20.25
2022-08-26T10:26:13.435Z,19.00
2022-08-26T10:28:42.581Z,19.25
2022-08-26T10:31:20.017Z,18.00
2022-08-26T10:33:51.222Z,21.00
2022-08-26T10:36:52.382Z,19.50
2022-08-26T10:39:27.285Z,22.50
2022-08-26T10:41:58.128Z,20.50
2022-08-26T10:44:25.596Z,19.75
2022-08-26T10:46:56.252Z,19.50
2022-08-26T10:49:23.676Z,19.75
2022-08-26T10:51:56.614Z,21.75
2022-08-26T10:54:26.952Z,22.00
2022-08-26T10:56:57.238Z,19.00
2022-08-26T10:59:29.512Z,22.50
2022-08-26T11:01:59.365Z,21.75
2022-08-26T11:04:41.504Z,20.00
2022-08-26T11:07:33.993Z,21.50
2022-08-26T11:10:01.974Z,21.75
2022-08-26T11:12:53.556Z,22.75
2022-08-26T11:16:09.904Z,19.50
2022-08-26T11:18:42.002Z,22.50
2022-08-26T11:21:47.789Z,21.00
2022-08-26T11:24:41.206Z,18.50
2022-08-26T11:27:12.199Z,19.00
2022-08-26T11:30:00.889Z,20.00
2022-08-26T11:32:48.690Z,21.25
2022-08-26T11:35:52.226Z,20.00
2022-08-26T11:38:23.100Z,20.75
2022-08-26T11:41:11.938Z,20.25
2022-08-26T11:43:40.063Z,16.00
2022-08-26T11:46:09.213Z,19.25
2022-08-26T11:48:37.684Z,19.50
2022-08-26T11:51:06.252Z,18.50
2022-08-26T11:53:37.915Z,17.75
2022-08-26T11:56:06.848Z,17.75
2022-08-26T11:58:35.571Z,20.00
2022-08-26T12:01:04.224Z,20.00
2022-08-26T12:03:39.884Z,18.75
2022-08-26T12:06:14.968Z,17.25
2022-08-26T12:08:43.931Z,18.25
2022-08-26T12:11:13.548Z,16.25
2022-08-26T12:13:42.724Z,21.00
2022-08-26T12:16:10.415Z,19.00
2022-08-26T12:18:39.013Z,18.00
2022-08-26T12:23:24.767Z,17.00
2022-08-26T12:25:52.666Z,21.75
2022-08-26T12:28:21.466Z,18.00
2022-08-26T12:31:01.368Z,19.67
2022-08-26T12:33:32.957Z,16.33
2022-08-26T12:36:01.924Z,18.67
2022-08-26T12:38:30.661Z,18.00
2022-08-26T12:40:58.168Z,18.00
2022-08-26T12:43:40.353Z,18.00
2022-08-26T12:46:08.769Z,15.50
2022-08-26T12:48:38.369Z,18.00
2022-08-26T12:51:07.419Z,20.00
2022-08-26T12:53:38.309Z,15.50
2022-08-26T12:56:19.174Z,16.50
2022-08-26T12:58:47.276Z,18.50
2022-08-26T13:01:22.389Z,20.25
2022-08-26T13:03:50.037Z,15.75
2022-08-26T13:06:29.839Z,17.25
2022-08-26T13:08:59.392Z,17.75
2022-08-26T13:11:28.083Z,18.67
2022-08-26T13:13:57.356Z,19.00
2022-08-26T13:16:25.198Z,18.67
2022-08-26T13:18:54.372Z,16.33
2022-08-26T13:21:22.675Z,18.50
2022-08-26T13:23:50.360Z,17.50
2022-08-26T13:26:19.193Z,17.33
2022-08-26T13:29:01.123Z,17.00
2022-08-26T13:31:30.278Z,17.00
2022-08-26T13:33:57.790Z,17.67
2022-08-26T13:36:25.275Z,15.00
2022-08-26T13:38:52.716Z,17.00
2022-08-26T13:41:28.924Z,17.67
2022-08-26T13:43:58.772Z,18.33
2022-08-26T13:46:27.154Z,16.67
2022-08-26T13:48:55.067Z,17.00
2022-08-26T13:51:23.328Z,17.33
2022-08-26T13:53:51.048Z,17.67
2022-08-26T13:56:18.732Z,16.33
2022-08-26T13:58:47.714Z,17.00
2022-08-26T14:01:17.050Z,16.33
2022-08-26T14:03:44.676Z,16.67
2022-08-26T14:06:12.194Z,15.00
2022-08-26T14:08:39.827Z,13.25
2022-08-26T14:11:07.824Z,18.00
2022-08-26T14:13:35.344Z,16.25
2022-08-26T14:16:04.862Z,16.00
2022-08-26T14:18:33.572Z,16.75
2022-08-26T14:21:01.711Z,17.75
2022-08-26T14:23:29.183Z,16.25
2022-08-26T14:25:56.661Z,16.25
2022-08-26T14:30:57.016Z,16.25
2022-08-26T14:33:28.200Z,14.00
2022-08-26T14:36:16.403Z,14.50
2022-08-26T14:38:44.050Z,11.00
2022-08-26T14:41:11.669Z,15.25
2022-08-26T14:43:39.887Z,16.50
2022-08-26T14:46:07.338Z,14.25
2022-08-26T14:48:36.097Z,13.75
2022-08-26T14:51:05.239Z,15.00
2022-08-26T14:53:50.178Z,14.50
2022-08-26T14:56:17.628Z,15.00
2022-08-26T14:58:45.866Z,13.50
2022-08-26T15:01:14.963Z,14.25
2022-08-26T15:03:43.776Z,14.50
2022-08-26T15:06:11.508Z,15.75
2022-08-26T15:08:39.987Z,14.00
2022-08-26T15:11:07.443Z,15.50
2022-08-26T15:13:35.602Z,15.50
2022-08-26T15:16:03.443Z,16.75
2022-08-26T15:18:31.561Z,14.75
2022-08-26T15:21:00.303Z,18.00
2022-08-26T15:23:27.744Z,13.33
2022-08-26T15:25:55.347Z,13.33
2022-08-26T15:28:22.796Z,16.33
2022-08-26T15:30:51.005Z,14.00
2022-08-26T15:33:18.513Z,15.25
2022-08-26T15:35:45.951Z,17.00
2022-08-26T15:38:14.676Z,16.00
2022-08-26T15:40:43.289Z,16.75
2022-08-26T15:43:27.858Z,13.75
2022-08-26T15:45:55.530Z,14.50
2022-08-26T15:48:23.006Z,17.00
2022-08-26T15:50:52.131Z,13.75
2022-08-26T15:53:21.346Z,17.00
2022-08-26T15:55:48.821Z,15.75
2022-08-26T15:58:17.240Z,15.25
2022-08-26T16:00:44.788Z,13.25
2022-08-26T16:03:12.311Z,14.00
2022-08-26T16:05:39.933Z,10.50
2022-08-26T16:08:08.120Z,15.25
2022-08-26T16:10:37.698Z,13.75
2022-08-26T16:13:05.423Z,14.25
2022-08-26T16:15:33.037Z,14.00
2022-08-26T16:18:01.864Z,12.25
2022-08-26T16:20:29.485Z,13.00
2022-08-26T16:22:57.002Z,14.25
2022-08-26T16:25:24.466Z,12.50
2022-08-26T16:27:53.609Z,14.25
2022-08-26T16:30:21.423Z,13.50
2022-08-26T16:32:49.047Z,13.75
2022-08-26T16:35:16.929Z,11.25
2022-08-26T16:37:44.411Z,14.00
2022-08-26T16:40:12.343Z,15.00
2022-08-26T16:42:39.824Z,13.00
2022-08-26T16:45:09.627Z,12.50
2022-08-26T16:47:37.065Z,13.75
2022-08-26T16:50:04.708Z,13.25
2022-08-26T16:52:32.153Z,14.00
2022-08-26T16:55:00.198Z,12.75
2022-08-26T16:57:28.799Z,12.75
2022-08-26T16:59:56.235Z,12.00
2022-08-26T17:02:25.059Z,13.75
2022-08-26T17:04:52.832Z,13.00
2022-08-26T17:07:20.306Z,11.50
2022-08-26T17:09:47.742Z,14.75
2022-08-26T17:12:15.193Z,13.25
2022-08-26T17:14:42.663Z,13.25
2022-08-26T17:17:13.226Z,12.75
2022-08-26T17:19:47.069Z,11.00
2022-08-26T17:22:14.832Z,11.25
2022-08-26T17:24:42.319Z,10.33
2022-08-26T17:27:09.761Z,12.00
2022-08-26T17:29:37.208Z,12.67
2022-08-26T17:32:05.066Z,12.00
2022-08-26T17:34:32.564Z,9.75
2022-08-26T17:37:01.279Z,12.00
2022-08-26T17:39:28.724Z,12.25
2022-08-26T17:41:56.153Z,11.75
2022-08-26T17:44:23.972Z,13.33
2022-08-26T17:46:51.463Z,12.33
2022-08-26T17:49:18.934Z,12.67
2022-08-26T17:51:46.356Z,11.33
2022-08-26T17:54:15.084Z,12.00
2022-08-26T17:56:42.518Z,10.00
2022-08-26T17:59:09.968Z,12.50
2022-08-26T18:01:37.487Z,10.25
2022-08-26T18:04:05.019Z,13.00
2022-08-26T18:06:33.529Z,13.33
2022-08-26T18:09:01.137Z,13.33
2022-08-26T18:11:30.053Z,13.50
2022-08-26T18:13:57.499Z,12.75
2022-08-26T18:16:24.985Z,13.00
2022-08-26T18:18:53.282Z,12.00
2022-08-26T18:21:22.357Z,12.50
2022-08-26T18:23:49.908Z,12.75
2022-08-26T18:26:18.283Z,11.25
2022-08-26T18:28:47.008Z,11.25
2022-08-26T18:31:15.107Z,11.75
2022-08-26T18:33:43.686Z,10.75
2022-08-26T18:36:16.257Z,12.00
2022-08-26T18:38:43.690Z,11.50
2022-08-26T18:41:11.295Z,10.00
2022-08-26T18:43:38.728Z,10.33
2022-08-26T18:46:08.703Z,10.33
2022-08-26T18:48:36.681Z,9.50
2022-08-26T18:51:04.335Z,10.67
2022-08-26T18:53:31.828Z,10.67
2022-08-26T18:55:59.351Z,11.50
2022-08-26T18:58:26.809Z,15.33
2022-08-26T19:00:54.245Z,11.25
2022-08-26T19:03:22.967Z,10.75
2022-08-26T19:05:50.405Z,10.75
2022-08-26T19:08:17.881Z,9.50
2022-08-26T19:10:45.302Z,10.25
2022-08-26T19:13:12.953Z,13.00
2022-08-26T19:15:44.759Z,11.75
2022-08-26T19:18:13.834Z,11.25
2022-08-26T19:20:46.522Z,10.75
2022-08-26T19:23:30.362Z,11.67
2022-08-26T19:25:59.087Z,10.75
2022-08-26T19:28:26.504Z,11.25
2022-08-26T19:30:53.972Z,9.75
2022-08-26T19:33:21.588Z,10.75
2022-08-26T19:35:50.296Z,9.00
2022-08-26T19:38:17.722Z,11.67
2022-08-26T19:40:45.138Z,11.00
2022-08-26T19:43:12.574Z,9.75
2022-08-26T19:45:40.128Z,9.33
2022-08-26T19:48:07.637Z,11.50
2022-08-26T19:50:35.161Z,11.67
2022-08-26T19:53:04.548Z,10.00
2022-08-26T19:55:31.989Z,9.33
2022-08-26T19:57:59.445Z,11.33
2022-08-26T20:00:28.861Z,10.67
2022-08-26T20:02:56.519Z,9.00
2022-08-26T20:05:24.264Z,13.33
2022-08-26T20:07:51.697Z,9.00
2022-08-26T20:10:21.909Z,11.00
2022-08-26T20:12:50.515Z,7.50
2022-08-26T20:15:17.939Z,11.00
2022-08-26T20:17:45.391Z,9.00
2022-08-26T20:20:34.383Z,11.00
2022-08-26T20:23:03.483Z,7.00
2022-08-26T20:25:33.346Z,11.67
2022-08-26T20:28:00.828Z,9.00
2022-08-26T20:30:28.273Z,10.75
2022-08-26T20:32:55.700Z,12.00
2022-08-26T20:35:23.783Z,11.50
2022-08-26T20:37:51.207Z,8.67
2022-08-26T20:40:18.695Z,9.33
2022-08-26T20:42:47.438Z,9.00
2022-08-26T20:45:14.868Z,11.00
2022-08-26T20:47:42.689Z,10.67
2022-08-26T20:50:10.369Z,10.25
2022-08-26T20:52:37.821Z,9.00
2022-08-26T20:55:05.778Z,10.00
2022-08-26T20:57:33.583Z,10.00
2022-08-26T21:00:02.330Z,12.33
2022-08-26T21:02:29.763Z,12.00
2022-08-26T21:04:57.486Z,9.67
2022-08-26T21:07:25.036Z,12.00
2022-08-26T21:09:52.466Z,7.33
2022-08-26T21:12:19.883Z,10.00
2022-08-26T21:14:49.664Z,10.67
2022-08-26T21:17:18.593Z,10.00
2022-08-26T21:19:46.044Z,9.67
2022-08-26T21:22:13.914Z,9.00
2022-08-26T21:24:41.343Z,8.67
2022-08-26T21:27:08.763Z,11.00
2022-08-26T21:29:36.719Z,9.33
2022-08-26T21:32:04.854Z,10.67
2022-08-26T21:34:33.597Z,9.67
2022-08-26T21:37:01.463Z,10.00
2022-08-26T21:39:32.962Z,10.00
2022-08-26T21:42:00.423Z,7.33
2022-08-26T21:44:27.886Z,10.00
2022-08-26T21:46:55.684Z,8.33
2022-08-26T21:49:23.119Z,10.00
2022-08-26T21:51:54.797Z,11.00
2022-08-26T21:54:22.219Z,8.67
2022-08-26T21:56:50.240Z,9.00
2022-08-26T21:59:18.455Z,8.00
2022-08-26T22:01:45.874Z,10.33
2022-08-26T22:04:13.307Z,11.00
2022-08-26T22:06:42.121Z,7.67
2022-08-26T22:09:10.931Z,8.33
2022-08-26T22:11:38.395Z,7.67
2022-08-26T22:14:05.893Z,9.67
2022-08-26T22:16:33.348Z,9.33
2022-08-26T22:19:00.806Z,11.67
2022-08-26T22:21:28.450Z,9.67
2022-08-26T22:23:58.144Z,10.00
2022-08-26T22:26:28.655Z,9.33
2022-08-26T22:28:59.066Z,9.33
2022-08-26T22:31:28.193Z,12.00
2022-08-26T22:34:07.157Z,7.33
2022-08-26T22:36:34.591Z,5.00
2022-08-26T22:39:02.051Z,10.67
2022-08-26T22:41:30.765Z,9.00
2022-08-26T22:44:02.517Z,8.33
2022-08-26T22:46:30.054Z,10.67
2022-08-26T22:48:57.479Z,8.67
2022-08-26T22:51:25.009Z,9.67
2022-08-26T22:53:52.451Z,8.00
2022-08-26T22:56:21.156Z,9.00
2022-08-26T22:58:49.980Z,8.33
2022-08-26T23:01:17.665Z,9.67
2022-08-26T23:03:45.839Z,9.00
2022-08-26T23:06:13.292Z,7.00
2022-08-26T23:08:41.779Z,9.00
2022-08-26T23:11:09.566Z,8.67
2022-08-26T23:13:37.023Z,8.33
2022-08-26T23:16:07.420Z,9.33
2022-08-26T23:18:34.895Z,8.33
2022-08-26T23:21:02.317Z,9.33
2022-08-26T23:23:29.768Z,8.00
2022-08-26T23:25:57.192Z,8.00
2022-08-26T23:28:24.655Z,8.67
2022-08-26T23:30:53.528Z,9.67
2022-08-26T23:33:22.223Z,9.00
2022-08-26T23:35:48.722Z,10.00
2022-08-26T23:38:16.817Z,9.33
2022-08-26T23:40:44.251Z,8.00
2022-08-26T23:43:12.236Z,10.00
2022-08-26T23:45:39.922Z,7.00
2022-08-26T23:48:07.485Z,9.00
2022-08-26T23:50:54.070Z,9.33
2022-08-26T23:53:23.553Z,10.00
2022-08-26T23:55:51.719Z,6.67
2022-08-26T23:58:20.302Z,9.00
